sensor_id;sensor_type;location;lat;lon;timestamp;pressure;altitude;pressure_sealevel;temperature;humidity
59877;BME280;45749;51.140;17.184;2023-02-02T00:01:25;99320.91;;;2.85;100.00
59877;BME280;45749;51.140;17.184;2023-02-02T00:03:51;99317.38;;;2.86;100.00
59877;BME280;45749;51.140;17.184;2023-02-02T00:06:20;99309.56;;;2.86;100.00
59877;BME280;45749;51.140;17.184;2023-02-02T00:08:45;99305.19;;;2.86;100.00
59877;BME280;45749;51.140;17.184;2023-02-02T00:11:11;99310.50;;;2.85;100.00
59877;BME280;45749;51.140;17.184;2023-02-02T00:13:37;99313.09;;;2.85;100.00
59877;BME280;45749;51.140;17.184;2023-02-02T00:18:47;99313.09;;;2.85;100.00
59877;BME280;45749;51.140;17.184;2023-02-02T00:21:12;99314.03;;;2.84;100.00
59877;BME280;45749;51.140;17.184;2023-02-02T00:23:37;99310.50;;;2.85;100.00
59877;BME280;45749;51.140;17.184;2023-02-02T00:26:03;99313.94;;;2.85;100.00
59877;BME280;45749;51.140;17.184;2023-02-02T00:28:28;99313.09;;;2.85;100.00
59877;BME280;45749;51.140;17.184;2023-02-02T00:30:53;99332.28;;;2.84;100.00
59877;BME280;45749;51.140;17.184;2023-02-02T00:33:18;99319.25;;;2.84;100.00
59877;BME280;45749;51.140;17.184;2023-02-02T00:35:44;99313.22;;;2.83;100.00
59877;BME280;45749;51.140;17.184;2023-02-02T00:38:09;99327.06;;;2.84;100.00
59877;BME280;45749;51.140;17.184;2023-02-02T00:40:34;99320.00;;;2.86;100.00
59877;BME280;45749;51.140;17.184;2023-02-02T00:42:59;99331.34;;;2.85;100.00
59877;BME280;45749;51.140;17.184;2023-02-02T00:45:25;99333.94;;;2.85;100.00
59877;BME280;45749;51.140;17.184;2023-02-02T00:47:51;99331.25;;;2.86;100.00
59877;BME280;45749;51.140;17.184;2023-02-02T00:50:18;99334.72;;;2.87;100.00
59877;BME280;45749;51.140;17.184;2023-02-02T00:52:43;99330.34;;;2.87;100.00
59877;BME280;45749;51.140;17.184;2023-02-02T00:55:09;99320.75;;;2.88;100.00
59877;BME280;45749;51.140;17.184;2023-02-02T00:57:35;99329.34;;;2.90;100.00
59877;BME280;45749;51.140;17.184;2023-02-02T01:00:00;99332.84;;;2.89;100.00
59877;BME280;45749;51.140;17.184;2023-02-02T01:02:25;99331.84;;;2.91;100.00
59877;BME280;45749;51.140;17.184;2023-02-02T01:04:51;99331.84;;;2.91;100.00
59877;BME280;45749;51.140;17.184;2023-02-02T01:07:16;99329.13;;;2.93;100.00
59877;BME280;45749;51.140;17.184;2023-02-02T01:09:41;99323.84;;;2.94;100.00
59877;BME280;45749;51.140;17.184;2023-02-02T01:12:06;99338.53;;;2.95;100.00
59877;BME280;45749;51.140;17.184;2023-02-02T01:14:32;99331.56;;;2.96;100.00
59877;BME280;45749;51.140;17.184;2023-02-02T01:16:57;99328.97;;;2.96;100.00
59877;BME280;45749;51.140;17.184;2023-02-02T01:19:22;99339.31;;;2.97;100.00
59877;BME280;45749;51.140;17.184;2023-02-02T01:21:48;99335.88;;;2.97;100.00
59877;BME280;45749;51.140;17.184;2023-02-02T01:24:13;99328.88;;;2.97;100.00
59877;BME280;45749;51.140;17.184;2023-02-02T01:26:38;99334.94;;;2.98;100.00
59877;BME280;45749;51.140;17.184;2023-02-02T01:29:03;99334.00;;;2.99;100.00
59877;BME280;45749;51.140;17.184;2023-02-02T01:31:29;99332.22;;;2.99;100.00
59877;BME280;45749;51.140;17.184;2023-02-02T01:33:54;99334.84;;;2.99;99.58
59877;BME280;45749;51.140;17.184;2023-02-02T01:36:20;99348.63;;;3.01;100.00
59877;BME280;45749;51.140;17.184;2023-02-02T01:38:46;99332.16;;;3.01;99.94
59877;BME280;45749;51.140;17.184;2023-02-02T01:41:12;99340.75;;;3.03;100.00
59877;BME280;45749;51.140;17.184;2023-02-02T01:46:13;99336.34;;;3.03;99.71
59877;BME280;45749;51.140;17.184;2023-02-02T01:48:40;99331.03;;;3.05;99.52
59877;BME280;45749;51.140;17.184;2023-02-02T01:51:08;99331.03;;;3.05;99.87
59877;BME280;45749;51.140;17.184;2023-02-02T01:53:34;99321.44;;;3.05;99.11
59877;BME280;45749;51.140;17.184;2023-02-02T01:56:00;99320.53;;;3.07;99.17
59877;BME280;45749;51.140;17.184;2023-02-02T01:58:28;99321.38;;;3.07;98.93
59877;BME280;45749;51.140;17.184;2023-02-02T02:00:54;99321.38;;;3.07;99.03
59877;BME280;45749;51.140;17.184;2023-02-02T02:03:20;99322.13;;;3.09;98.44
59877;BME280;45749;51.140;17.184;2023-02-02T02:05:50;99321.22;;;3.10;98.58
59877;BME280;45749;51.140;17.184;2023-02-02T02:08:17;99323.81;;;3.10;98.21
59877;BME280;45749;51.140;17.184;2023-02-02T02:10:43;99319.34;;;3.12;98.59
59877;BME280;45749;51.140;17.184;2023-02-02T02:13:08;99319.34;;;3.12;98.01
59877;BME280;45749;51.140;17.184;2023-02-02T02:15:37;99307.16;;;3.13;98.34
59877;BME280;45749;51.140;17.184;2023-02-02T02:19:02;99305.38;;;3.13;98.26
59877;BME280;45749;51.140;17.184;2023-02-02T02:29:25;99301.66;;;3.17;97.65
59877;BME280;45749;51.140;17.184;2023-02-02T02:42:33;99308.38;;;3.21;97.22
59877;BME280;45749;51.140;17.184;2023-02-02T02:45:00;99300.56;;;3.21;97.37
59877;BME280;45749;51.140;17.184;2023-02-02T02:47:27;99306.53;;;3.23;97.35
59877;BME280;45749;51.140;17.184;2023-02-02T02:49:53;99312.56;;;3.24;97.43
59877;BME280;45749;51.140;17.184;2023-02-02T02:52:18;99290.88;;;3.23;96.92
59877;BME280;45749;51.140;17.184;2023-02-02T02:54:50;99298.53;;;3.26;97.23
59877;BME280;45749;51.140;17.184;2023-02-02T03:00:01;99291.53;;;3.27;97.00
59877;BME280;45749;51.140;17.184;2023-02-02T03:02:39;99293.22;;;3.28;96.56
59877;BME280;45749;51.140;17.184;2023-02-02T03:10:13;99280.81;;;3.32;96.80
59877;BME280;45749;51.140;17.184;2023-02-02T03:12:44;99291.19;;;3.33;96.42
59877;BME280;45749;51.140;17.184;2023-02-02T03:15:11;99286.81;;;3.34;96.58
59877;BME280;45749;51.140;17.184;2023-02-02T03:17:36;99276.38;;;3.34;96.44
59877;BME280;45749;51.140;17.184;2023-02-02T03:20:02;99284.09;;;3.35;95.99
59877;BME280;45749;51.140;17.184;2023-02-02T03:22:27;99264.94;;;3.36;96.13
59877;BME280;45749;51.140;17.184;2023-02-02T03:24:52;99257.81;;;3.38;96.31
59877;BME280;45749;51.140;17.184;2023-02-02T03:27:17;99250.84;;;3.39;95.54
59877;BME280;45749;51.140;17.184;2023-02-02T03:29:43;99243.00;;;3.39;96.06
59877;BME280;45749;51.140;17.184;2023-02-02T03:32:08;99246.50;;;3.39;95.46
59877;BME280;45749;51.140;17.184;2023-02-02T03:34:33;99236.06;;;3.39;95.49
59877;BME280;45749;51.140;17.184;2023-02-02T03:36:58;99234.28;;;3.40;95.39
59877;BME280;45749;51.140;17.184;2023-02-02T03:39:24;99235.13;;;3.40;95.28
59877;BME280;45749;51.140;17.184;2023-02-02T03:41:49;99226.34;;;3.41;95.36
59877;BME280;45749;51.140;17.184;2023-02-02T03:44:14;99233.28;;;3.42;95.44
59877;BME280;45749;51.140;17.184;2023-02-02T03:46:39;99228.88;;;3.43;95.33
59877;BME280;45749;51.140;17.184;2023-02-02T03:49:05;99222.84;;;3.42;94.66
59877;BME280;45749;51.140;17.184;2023-02-02T03:51:30;99216.75;;;3.42;94.82
59877;BME280;45749;51.140;17.184;2023-02-02T03:53:55;99210.69;;;3.41;94.67
59877;BME280;45749;51.140;17.184;2023-02-02T03:56:21;99222.91;;;3.41;94.10
59877;BME280;45749;51.140;17.184;2023-02-02T03:58:46;99226.34;;;3.41;94.09
59877;BME280;45749;51.140;17.184;2023-02-02T04:01:12;99222.91;;;3.41;94.46
59877;BME280;45749;51.140;17.184;2023-02-02T04:03:37;99215.19;;;3.39;93.79
59877;BME280;45749;51.140;17.184;2023-02-02T04:06:02;99214.25;;;3.40;94.05
59877;BME280;45749;51.140;17.184;2023-02-02T04:08:28;99220.31;;;3.41;94.11
59877;BME280;45749;51.140;17.184;2023-02-02T04:10:53;99224.56;;;3.42;94.40
59877;BME280;45749;51.140;17.184;2023-02-02T04:13:19;99207.19;;;3.42;94.36
59877;BME280;45749;51.140;17.184;2023-02-02T04:15:44;99210.63;;;3.43;94.15
59877;BME280;45749;51.140;17.184;2023-02-02T04:18:09;99220.94;;;3.44;94.63
59877;BME280;45749;51.140;17.184;2023-02-02T04:20:35;99208.75;;;3.45;93.68
59877;BME280;45749;51.140;17.184;2023-02-02T04:23:00;99206.97;;;3.45;93.16
59877;BME280;45749;51.140;17.184;2023-02-02T04:25:25;99201.56;;;3.48;93.82
59877;BME280;45749;51.140;17.184;2023-02-02T04:27:51;99207.66;;;3.49;93.48
59877;BME280;45749;51.140;17.184;2023-02-02T04:30:16;99208.38;;;3.51;93.10
59877;BME280;45749;51.140;17.184;2023-02-02T04:32:41;99204.00;;;3.51;93.54
59877;BME280;45749;51.140;17.184;2023-02-02T04:35:07;99201.31;;;3.53;93.59
59877;BME280;45749;51.140;17.184;2023-02-02T04:37:32;99198.59;;;3.55;93.25
59877;BME280;45749;51.140;17.184;2023-02-02T04:39:57;99211.63;;;3.55;93.16
59877;BME280;45749;51.140;17.184;2023-02-02T04:42:23;99210.59;;;3.57;92.69
59877;BME280;45749;51.140;17.184;2023-02-02T04:44:48;99220.97;;;3.59;92.48
59877;BME280;45749;51.140;17.184;2023-02-02T04:47:13;99218.34;;;3.59;91.73
59877;BME280;45749;51.140;17.184;2023-02-02T04:49:39;99206.03;;;3.61;92.61
59877;BME280;45749;51.140;17.184;2023-02-02T04:52:04;99208.56;;;3.62;92.39
59877;BME280;45749;51.140;17.184;2023-02-02T04:54:30;99199.88;;;3.62;92.52
59877;BME280;45749;51.140;17.184;2023-02-02T04:56:55;99198.13;;;3.62;93.13
59877;BME280;45749;51.140;17.184;2023-02-02T04:59:20;99192.91;;;3.62;92.50
59877;BME280;45749;51.140;17.184;2023-02-02T05:01:45;99196.25;;;3.64;92.92
59877;BME280;45749;51.140;17.184;2023-02-02T05:04:11;99198.97;;;3.63;92.62
59877;BME280;45749;51.140;17.184;2023-02-02T05:06:36;99192.81;;;3.64;92.07
59877;BME280;45749;51.140;17.184;2023-02-02T05:09:01;99202.31;;;3.65;92.59
59877;BME280;45749;51.140;17.184;2023-02-02T05:11:27;99207.53;;;3.65;92.34
59877;BME280;45749;51.140;17.184;2023-02-02T05:13:52;99204.84;;;3.66;91.46
59877;BME280;45749;51.140;17.184;2023-02-02T05:16:19;99208.16;;;3.68;92.00
59877;BME280;45749;51.140;17.184;2023-02-02T05:18:50;99209.88;;;3.69;92.46
59877;BME280;45749;51.140;17.184;2023-02-02T05:21:16;99201.09;;;3.70;92.00
59877;BME280;45749;51.140;17.184;2023-02-02T05:23:41;99201.94;;;3.71;92.26
59877;BME280;45749;51.140;17.184;2023-02-02T05:26:08;99207.06;;;3.72;92.18
59877;BME280;45749;51.140;17.184;2023-02-02T05:28:36;99206.13;;;3.73;92.46
59877;BME280;45749;51.140;17.184;2023-02-02T05:31:04;99213.84;;;3.75;92.37
59877;BME280;45749;51.140;17.184;2023-02-02T05:33:29;99220.84;;;3.74;92.36
59877;BME280;45749;51.140;17.184;2023-02-02T05:35:55;99208.53;;;3.76;92.42
59877;BME280;45749;51.140;17.184;2023-02-02T05:38:20;99213.66;;;3.78;92.15
59877;BME280;45749;51.140;17.184;2023-02-02T05:40:47;99217.13;;;3.79;91.68
59877;BME280;45749;51.140;17.184;2023-02-02T05:43:12;99232.69;;;3.80;92.52
59877;BME280;45749;51.140;17.184;2023-02-02T05:45:37;99218.69;;;3.81;92.52
59877;BME280;45749;51.140;17.184;2023-02-02T05:48:03;99229.22;;;3.80;92.70
59877;BME280;45749;51.140;17.184;2023-02-02T05:50:28;99239.75;;;3.78;93.37
59877;BME280;45749;51.140;17.184;2023-02-02T05:52:53;99234.72;;;3.75;93.71
59877;BME280;45749;51.140;17.184;2023-02-02T05:55:19;99240.22;;;3.70;94.08
59877;BME280;45749;51.140;17.184;2023-02-02T05:57:44;99228.19;;;3.68;93.51
59877;BME280;45749;51.140;17.184;2023-02-02T06:00:09;99228.31;;;3.66;94.27
59877;BME280;45749;51.140;17.184;2023-02-02T06:02:35;99228.31;;;3.66;93.75
59877;BME280;45749;51.140;17.184;2023-02-02T06:05:00;99234.38;;;3.67;93.96
59877;BME280;45749;51.140;17.184;2023-02-02T06:07:25;99236.13;;;3.66;94.11
59877;BME280;45749;51.140;17.184;2023-02-02T06:09:51;99249.25;;;3.65;94.37
59877;BME280;45749;51.140;17.184;2023-02-02T06:12:16;99267.53;;;3.65;95.00
59877;BME280;45749;51.140;17.184;2023-02-02T06:14:43;99258.97;;;3.63;94.88
59877;BME280;45749;51.140;17.184;2023-02-02T06:17:08;99254.78;;;3.60;95.47
59877;BME280;45749;51.140;17.184;2023-02-02T06:19:33;99259.22;;;3.58;95.80
59877;BME280;45749;51.140;17.184;2023-02-02T06:21:59;99256.81;;;3.55;95.74
59877;BME280;45749;51.140;17.184;2023-02-02T06:24:24;99251.59;;;3.55;96.16
59877;BME280;45749;51.140;17.184;2023-02-02T06:26:49;99268.09;;;3.56;96.12
59877;BME280;45749;51.140;17.184;2023-02-02T06:29:14;99277.69;;;3.55;96.41
59877;BME280;45749;51.140;17.184;2023-02-02T06:31:40;99268.09;;;3.56;96.21
59877;BME280;45749;51.140;17.184;2023-02-02T06:34:05;99269.00;;;3.55;96.16
59877;BME280;45749;51.140;17.184;2023-02-02T06:36:30;99265.50;;;3.56;95.96
59877;BME280;45749;51.140;17.184;2023-02-02T06:38:56;99289.69;;;3.58;95.75
59877;BME280;45749;51.140;17.184;2023-02-02T06:41:21;99277.50;;;3.58;95.73
59877;BME280;45749;51.140;17.184;2023-02-02T06:43:47;99289.63;;;3.59;95.90
59877;BME280;45749;51.140;17.184;2023-02-02T06:46:12;99296.50;;;3.60;95.50
59877;BME280;45749;51.140;17.184;2023-02-02T06:48:38;99293.91;;;3.60;95.80
59877;BME280;45749;51.140;17.184;2023-02-02T06:51:03;99286.06;;;3.60;95.82
59877;BME280;45749;51.140;17.184;2023-02-02T06:53:29;99293.06;;;3.60;95.42
59877;BME280;45749;51.140;17.184;2023-02-02T06:55:55;99296.50;;;3.60;95.40
59877;BME280;45749;51.140;17.184;2023-02-02T06:58:21;99291.41;;;3.59;95.16
59877;BME280;45749;51.140;17.184;2023-02-02T07:00:46;99296.50;;;3.60;95.70
59877;BME280;45749;51.140;17.184;2023-02-02T07:03:12;99313.84;;;3.61;95.43
59877;BME280;45749;51.140;17.184;2023-02-02T07:05:40;99316.44;;;3.61;95.14
59877;BME280;45749;51.140;17.184;2023-02-02T07:08:05;99316.44;;;3.61;95.00
59877;BME280;45749;51.140;17.184;2023-02-02T07:10:30;99306.00;;;3.61;95.19
59877;BME280;45749;51.140;17.184;2023-02-02T07:12:56;99309.56;;;3.60;94.96
59877;BME280;45749;51.140;17.184;2023-02-02T07:15:21;99335.53;;;3.62;95.01
59877;BME280;45749;51.140;17.184;2023-02-02T07:17:46;99324.28;;;3.61;94.92
59877;BME280;45749;51.140;17.184;2023-02-02T07:20:11;99350.28;;;3.63;94.76
59877;BME280;45749;51.140;17.184;2023-02-02T07:22:37;99345.06;;;3.63;94.68
59877;BME280;45749;51.140;17.184;2023-02-02T07:25:03;99356.34;;;3.63;95.36
59877;BME280;45749;51.140;17.184;2023-02-02T07:27:28;99348.50;;;3.63;95.21
59877;BME280;45749;51.140;17.184;2023-02-02T07:29:53;99357.16;;;3.64;95.22
59877;BME280;45749;51.140;17.184;2023-02-02T07:32:19;99352.78;;;3.64;95.32
59877;BME280;45749;51.140;17.184;2023-02-02T07:34:44;99353.63;;;3.65;95.36
59877;BME280;45749;51.140;17.184;2023-02-02T07:37:09;99361.44;;;3.65;95.30
59877;BME280;45749;51.140;17.184;2023-02-02T07:39:35;99365.84;;;3.64;94.79
59877;BME280;45749;51.140;17.184;2023-02-02T07:42:00;99357.09;;;3.65;95.11
59877;BME280;45749;51.140;17.184;2023-02-02T07:44:28;99377.84;;;3.67;95.21
59877;BME280;45749;51.140;17.184;2023-02-02T07:46:53;99375.25;;;3.67;95.11
59877;BME280;45749;51.140;17.184;2023-02-02T07:49:18;99383.91;;;3.67;95.15
59877;BME280;45749;51.140;17.184;2023-02-02T07:51:44;99383.91;;;3.67;95.02
59877;BME280;45749;51.140;17.184;2023-02-02T07:54:11;99383.09;;;3.67;95.54
59877;BME280;45749;51.140;17.184;2023-02-02T07:56:37;99384.84;;;3.66;95.85
59877;BME280;45749;51.140;17.184;2023-02-02T07:59:03;99396.22;;;3.65;96.35
59877;BME280;45749;51.140;17.184;2023-02-02T08:01:29;99394.53;;;3.64;96.30
59877;BME280;45749;51.140;17.184;2023-02-02T08:03:55;99403.19;;;3.65;96.54
59877;BME280;45749;51.140;17.184;2023-02-02T08:06:21;99403.28;;;3.63;96.65
59877;BME280;45749;51.140;17.184;2023-02-02T08:08:46;99417.09;;;3.65;96.72
59877;BME280;45749;51.140;17.184;2023-02-02T08:11:12;99414.38;;;3.67;96.96
59877;BME280;45749;51.140;17.184;2023-02-02T08:13:38;99424.72;;;3.68;96.71
59877;BME280;45749;51.140;17.184;2023-02-02T08:16:04;99428.19;;;3.69;96.94
59877;BME280;45749;51.140;17.184;2023-02-02T08:18:30;99440.38;;;3.68;96.88
59877;BME280;45749;51.140;17.184;2023-02-02T08:20:59;99452.41;;;3.71;96.87
59877;BME280;45749;51.140;17.184;2023-02-02T08:23:24;99444.41;;;3.74;96.95
59877;BME280;45749;51.140;17.184;2023-02-02T08:25:49;99454.13;;;3.72;96.65
59877;BME280;45749;51.140;17.184;2023-02-02T08:28:15;99462.00;;;3.70;96.09
59877;BME280;45749;51.140;17.184;2023-02-02T08:30:41;99467.41;;;3.67;95.83
59877;BME280;45749;51.140;17.184;2023-02-02T08:33:06;99457.25;;;3.63;95.47
59877;BME280;45749;51.140;17.184;2023-02-02T08:35:31;99479.97;;;3.61;95.63
59877;BME280;45749;51.140;17.184;2023-02-02T08:37:57;99468.88;;;3.57;95.83
59877;BME280;45749;51.140;17.184;2023-02-02T08:40:22;99487.22;;;3.56;96.09
59877;BME280;45749;51.140;17.184;2023-02-02T08:42:51;99494.19;;;3.55;96.71
59877;BME280;45749;51.140;17.184;2023-02-02T08:45:18;99501.09;;;3.56;96.69
59877;BME280;45749;51.140;17.184;2023-02-02T08:47:43;99506.22;;;3.58;96.45
59877;BME280;45749;51.140;17.184;2023-02-02T08:50:09;99506.06;;;3.61;96.92
59877;BME280;45749;51.140;17.184;2023-02-02T08:52:34;99503.28;;;3.64;96.77
59877;BME280;45749;51.140;17.184;2023-02-02T08:54:59;99503.09;;;3.67;96.57
59877;BME280;45749;51.140;17.184;2023-02-02T08:57:25;99515.97;;;3.70;96.91
59877;BME280;45749;51.140;17.184;2023-02-02T08:59:51;99517.56;;;3.72;96.38
59877;BME280;45749;51.140;17.184;2023-02-02T09:02:16;99519.06;;;3.76;96.30
59877;BME280;45749;51.140;17.184;2023-02-02T09:04:42;99526.63;;;3.81;96.24
59877;BME280;45749;51.140;17.184;2023-02-02T09:07:09;99527.28;;;3.85;96.23
59877;BME280;45749;51.140;17.184;2023-02-02T09:09:34;99532.25;;;3.89;96.20
59877;BME280;45749;51.140;17.184;2023-02-02T09:12:00;99541.75;;;3.90;95.87
59877;BME280;45749;51.140;17.184;2023-02-02T09:14:25;99540.75;;;3.93;95.63
59877;BME280;45749;51.140;17.184;2023-02-02T09:16:50;99542.34;;;3.95;94.83
59877;BME280;45749;51.140;17.184;2023-02-02T09:19:15;99543.91;;;3.98;94.89
59877;BME280;45749;51.140;17.184;2023-02-02T09:21:41;99549.91;;;4.00;93.83
59877;BME280;45749;51.140;17.184;2023-02-02T09:24:07;99555.88;;;4.02;93.27
59877;BME280;45749;51.140;17.184;2023-02-02T09:26:32;99565.28;;;4.05;93.35
59877;BME280;45749;51.140;17.184;2023-02-02T09:28:59;99567.06;;;4.04;93.51
59877;BME280;45749;51.140;17.184;2023-02-02T09:31:28;99569.69;;;4.04;93.98
59877;BME280;45749;51.140;17.184;2023-02-02T09:33:54;99572.13;;;4.07;94.08
59877;BME280;45749;51.140;17.184;2023-02-02T09:36:20;99572.13;;;4.07;93.91
59877;BME280;45749;51.140;17.184;2023-02-02T09:38:46;99585.16;;;4.07;93.65
59877;BME280;45749;51.140;17.184;2023-02-02T09:46:19;99591.88;;;4.11;93.50
59877;BME280;45749;51.140;17.184;2023-02-02T09:48:56;99592.75;;;4.12;93.46
59877;BME280;45749;51.140;17.184;2023-02-02T09:51:24;99591.63;;;4.16;94.11
59877;BME280;45749;51.140;17.184;2023-02-02T09:53:55;99601.81;;;4.20;93.22
59877;BME280;45749;51.140;17.184;2023-02-02T09:56:27;99602.56;;;4.22;93.34
59877;BME280;45749;51.140;17.184;2023-02-02T09:58:56;99601.63;;;4.23;93.17
59877;BME280;45749;51.140;17.184;2023-02-02T10:01:29;99613.97;;;4.21;93.02
59877;BME280;45749;51.140;17.184;2023-02-02T10:04:06;99617.59;;;4.19;92.61
59877;BME280;45749;51.140;17.184;2023-02-02T10:11:42;99611.56;;;4.33;91.68
59877;BME280;45749;51.140;17.184;2023-02-02T10:14:10;99608.59;;;4.39;91.92
59877;BME280;45749;51.140;17.184;2023-02-02T10:16:39;99610.09;;;4.43;92.29
59877;BME280;45749;51.140;17.184;2023-02-02T10:19:07;99616.38;;;4.55;92.18
59877;BME280;45749;51.140;17.184;2023-02-02T10:21:37;99627.47;;;4.58;90.42
59877;BME280;45749;51.140;17.184;2023-02-02T10:24:04;99621.41;;;4.58;90.78
59877;BME280;45749;51.140;17.184;2023-02-02T10:26:38;99623.16;;;4.57;90.38
59877;BME280;45749;51.140;17.184;2023-02-02T10:36:41;99628.91;;;4.78;90.60
59877;BME280;45749;51.140;17.184;2023-02-02T10:41:40;99633.31;;;4.92;89.40
59877;BME280;45749;51.140;17.184;2023-02-02T10:44:17;99637.53;;;4.94;90.40
59877;BME280;45749;51.140;17.184;2023-02-02T10:46:45;99638.06;;;5.00;89.94
59877;BME280;45749;51.140;17.184;2023-02-02T10:57:42;99681.41;;;5.32;88.84
59877;BME280;45749;51.140;17.184;2023-02-02T11:02:37;99667.47;;;5.46;89.95
59877;BME280;45749;51.140;17.184;2023-02-02T11:05:02;99681.06;;;5.53;87.30
59877;BME280;45749;51.140;17.184;2023-02-02T11:07:46;99681.78;;;5.55;86.62
59877;BME280;45749;51.140;17.184;2023-02-02T11:10:12;99699.91;;;5.58;87.56
59877;BME280;45749;51.140;17.184;2023-02-02T11:12:39;99684.03;;;5.61;87.71
59877;BME280;45749;51.140;17.184;2023-02-02T11:15:07;99695.06;;;5.66;87.72
59877;BME280;45749;51.140;17.184;2023-02-02T11:17:46;99696.44;;;5.72;86.93
59877;BME280;45749;51.140;17.184;2023-02-02T11:20:30;99695.28;;;5.76;87.11
59877;BME280;45749;51.140;17.184;2023-02-02T11:23:02;99696.16;;;5.76;86.94
59877;BME280;45749;51.140;17.184;2023-02-02T11:25:29;99692.59;;;5.77;86.28
59877;BME280;45749;51.140;17.184;2023-02-02T11:27:58;99711.88;;;5.76;86.24
59877;BME280;45749;51.140;17.184;2023-02-02T11:30:34;99706.00;;;5.73;86.96
59877;BME280;45749;51.140;17.184;2023-02-02T11:33:20;99709.53;;;5.72;88.31
59877;BME280;45749;51.140;17.184;2023-02-02T11:35:56;99717.75;;;5.80;88.53
59877;BME280;45749;51.140;17.184;2023-02-02T11:38:22;99719.88;;;5.87;88.81
59877;BME280;45749;51.140;17.184;2023-02-02T11:40:51;99717.66;;;5.96;89.04
59877;BME280;45749;51.140;17.184;2023-02-02T11:43:28;99716.78;;;6.09;89.31
59877;BME280;45749;51.140;17.184;2023-02-02T11:45:58;99724.66;;;6.09;86.64
59877;BME280;45749;51.140;17.184;2023-02-02T11:48:35;99726.91;;;6.01;83.65
59877;BME280;45749;51.140;17.184;2023-02-02T11:51:01;99721.84;;;5.84;84.38
59877;BME280;45749;51.140;17.184;2023-02-02T11:53:28;99726.06;;;5.72;84.64
59877;BME280;45749;51.140;17.184;2023-02-02T11:55:55;99737.97;;;5.63;84.00
59877;BME280;45749;51.140;17.184;2023-02-02T11:58:25;99746.56;;;5.51;85.09
59877;BME280;45749;51.140;17.184;2023-02-02T12:01:01;99752.22;;;5.29;84.90
59877;BME280;45749;51.140;17.184;2023-02-02T12:03:34;99755.31;;;5.07;86.77
59877;BME280;45749;51.140;17.184;2023-02-02T12:06:04;99758.91;;;4.90;88.21
59877;BME280;45749;51.140;17.184;2023-02-02T12:08:41;99757.66;;;4.82;88.87
59877;BME280;45749;51.140;17.184;2023-02-02T12:11:07;99756.16;;;4.78;88.54
59877;BME280;45749;51.140;17.184;2023-02-02T12:21:34;99767.97;;;4.69;88.20
59877;BME280;45749;51.140;17.184;2023-02-02T12:26:47;99769.16;;;4.63;87.35
59877;BME280;45749;51.140;17.184;2023-02-02T12:48:19;99794.91;;;4.39;89.11
59877;BME280;45749;51.140;17.184;2023-02-02T12:56:36;99822.69;;;4.40;90.38
59877;BME280;45749;51.140;17.184;2023-02-02T13:04:27;99836.97;;;4.35;91.72
59877;BME280;45749;51.140;17.184;2023-02-02T13:09:40;99847.81;;;4.27;92.62
59877;BME280;45749;51.140;17.184;2023-02-02T13:12:08;99851.69;;;4.20;92.77
59877;BME280;45749;51.140;17.184;2023-02-02T13:14:35;99848.13;;;4.05;92.95
59877;BME280;45749;51.140;17.184;2023-02-02T13:19:51;99862.56;;;3.79;93.45
59877;BME280;45749;51.140;17.184;2023-02-02T13:22:20;99864.94;;;3.66;93.41
59877;BME280;45749;51.140;17.184;2023-02-02T13:24:47;99875.06;;;3.55;93.70
59877;BME280;45749;51.140;17.184;2023-02-02T13:27:14;99874.00;;;3.42;93.96
59877;BME280;45749;51.140;17.184;2023-02-02T13:29:43;99883.38;;;3.28;93.57
59877;BME280;45749;51.140;17.184;2023-02-02T13:32:14;99884.97;;;3.14;94.06
59877;BME280;45749;51.140;17.184;2023-02-02T13:37:17;99891.72;;;3.00;95.72
59877;BME280;45749;51.140;17.184;2023-02-02T13:39:47;99892.84;;;2.95;95.54
59877;BME280;45749;51.140;17.184;2023-02-02T13:42:37;99902.66;;;2.90;95.76
59877;BME280;45749;51.140;17.184;2023-02-02T13:47:53;99905.88;;;2.76;95.88
59877;BME280;45749;51.140;17.184;2023-02-02T13:50:22;99909.41;;;2.75;96.13
59877;BME280;45749;51.140;17.184;2023-02-02T13:53:21;99907.88;;;2.71;96.49
59877;BME280;45749;51.140;17.184;2023-02-02T13:56:07;99923.72;;;2.66;96.53
59877;BME280;45749;51.140;17.184;2023-02-02T13:58:41;99919.56;;;2.62;96.82
59877;BME280;45749;51.140;17.184;2023-02-02T14:01:09;99927.47;;;2.61;97.13
59877;BME280;45749;51.140;17.184;2023-02-02T14:03:36;99924.16;;;2.57;97.38
59877;BME280;45749;51.140;17.184;2023-02-02T14:06:19;99919.97;;;2.53;97.24
59877;BME280;45749;51.140;17.184;2023-02-02T14:08:52;99924.50;;;2.49;97.48
59877;BME280;45749;51.140;17.184;2023-02-02T14:11:19;99927.09;;;2.49;97.59
59877;BME280;45749;51.140;17.184;2023-02-02T14:13:46;99933.00;;;2.53;97.91
59877;BME280;45749;51.140;17.184;2023-02-02T14:18:57;99946.53;;;2.61;98.15
59877;BME280;45749;51.140;17.184;2023-02-02T14:23:58;99954.91;;;2.68;98.21
59877;BME280;45749;51.140;17.184;2023-02-02T14:26:43;99959.00;;;2.73;98.55
59877;BME280;45749;51.140;17.184;2023-02-02T14:32:40;99968.28;;;2.79;98.55
59877;BME280;45749;51.140;17.184;2023-02-02T14:34:41;99965.69;;;2.79;98.42
59877;BME280;45749;51.140;17.184;2023-02-02T14:37:40;99967.38;;;2.80;98.30
59877;BME280;45749;51.140;17.184;2023-02-02T14:47:54;99991.69;;;2.80;97.38
59877;BME280;45749;51.140;17.184;2023-02-02T14:50:26;99996.06;;;2.80;97.34
59877;BME280;45749;51.140;17.184;2023-02-02T14:52:59;99998.84;;;2.75;97.43
59877;BME280;45749;51.140;17.184;2023-02-02T14:55:25;100003.31;;;2.73;97.38
59877;BME280;45749;51.140;17.184;2023-02-02T14:57:55;100009.41;;;2.72;97.29
59877;BME280;45749;51.140;17.184;2023-02-02T15:00:22;100013.88;;;2.70;97.51
59877;BME280;45749;51.140;17.184;2023-02-02T15:02:48;100022.66;;;2.68;97.50
59877;BME280;45749;51.140;17.184;2023-02-02T15:13:10;100052.56;;;2.59;97.61
59877;BME280;45749;51.140;17.184;2023-02-02T15:15:40;100051.84;;;2.55;97.52
59877;BME280;45749;51.140;17.184;2023-02-02T15:18:12;100051.94;;;2.54;97.45